createdAt,value
2023-03-21T00:00:35.280Z,10.01
2023-03-21T00:03:38.211Z,9.95
2023-03-21T00:06:40.853Z,9.96
2023-03-21T00:09:43.747Z,9.96
2023-03-21T00:12:46.296Z,9.92
2023-03-21T00:16:05.872Z,9.98
2023-03-21T00:19:15.965Z,9.99
2023-03-21T00:22:18.809Z,9.83
2023-03-21T00:25:21.430Z,9.86
2023-03-21T00:28:25.179Z,9.81
2023-03-21T00:31:27.907Z,9.72
2023-03-21T00:34:42.733Z,9.88
2023-03-21T00:37:51.354Z,9.74
2023-03-21T00:40:55.101Z,9.72
2023-03-21T00:43:57.739Z,9.75
2023-03-21T00:47:07.362Z,9.75
2023-03-21T00:50:11.972Z,9.70
2023-03-21T00:53:15.734Z,9.77
2023-03-21T00:56:18.233Z,9.65
2023-03-21T00:59:21.245Z,9.65
2023-03-21T01:02:26.876Z,9.66
2023-03-21T01:05:53.868Z,9.53
2023-03-21T01:08:56.441Z,9.51
2023-03-21T01:11:59.545Z,9.47
2023-03-21T01:15:02.093Z,9.48
2023-03-21T01:18:05.312Z,9.52
2023-03-21T01:21:14.499Z,9.37
2023-03-21T01:24:17.490Z,9.49
2023-03-21T01:27:20.877Z,9.32
2023-03-21T01:30:24.997Z,9.47
2023-03-21T01:33:30.308Z,9.57
2023-03-21T01:36:33.269Z,9.64
2023-03-21T01:39:36.909Z,9.65
2023-03-21T01:42:39.837Z,9.70
2023-03-21T01:46:45.381Z,9.70
2023-03-21T01:49:56.671Z,9.69
2023-03-21T01:53:00.759Z,9.51
2023-03-21T01:56:08.628Z,9.51
2023-03-21T01:59:17.411Z,9.55
2023-03-21T02:02:26.362Z,9.61
2023-03-21T02:05:41.701Z,9.55
2023-03-21T02:08:44.688Z,9.61
2023-03-21T02:11:47.862Z,9.57
2023-03-21T02:14:52.025Z,9.41
2023-03-21T02:18:05.759Z,9.49
2023-03-21T02:21:27.763Z,9.42
2023-03-21T02:25:06.204Z,9.42
2023-03-21T02:28:37.076Z,9.49
2023-03-21T02:32:17.910Z,9.50
2023-03-21T02:35:54.432Z,9.52
2023-03-21T02:39:45.054Z,9.60
2023-03-21T02:43:01.207Z,9.67
2023-03-21T02:46:12.203Z,9.49
2023-03-21T02:49:20.794Z,9.59
2023-03-21T02:52:39.265Z,9.54
2023-03-21T02:55:43.586Z,9.59
2023-03-21T02:58:47.082Z,9.53
2023-03-21T03:01:52.378Z,9.63
2023-03-21T03:04:55.705Z,9.58
2023-03-21T03:08:22.195Z,9.53
2023-03-21T03:11:37.468Z,9.59
2023-03-21T03:15:08.997Z,9.48
2023-03-21T03:18:21.097Z,9.48
2023-03-21T03:21:26.734Z,9.49
2023-03-21T03:25:04.805Z,9.48
2023-03-21T03:28:20.125Z,9.46
2023-03-21T03:31:32.145Z,9.41
2023-03-21T03:34:39.828Z,9.40
2023-03-21T03:37:43.237Z,9.30
2023-03-21T03:40:49.301Z,9.33
2023-03-21T03:43:59.808Z,9.39
2023-03-21T03:47:15.163Z,9.45
2023-03-21T03:50:54.289Z,9.45
2023-03-21T03:54:01.817Z,9.38
2023-03-21T03:57:06.029Z,9.33
2023-03-21T04:00:13.053Z,9.36
2023-03-21T04:03:19.613Z,9.31
2023-03-21T04:06:22.730Z,9.40
2023-03-21T04:09:42.580Z,9.46
2023-03-21T04:12:46.818Z,9.41
2023-03-21T04:15:49.869Z,9.57
2023-03-21T04:18:53.446Z,9.47
2023-03-21T04:21:56.108Z,9.41
2023-03-21T04:25:00.554Z,9.35
2023-03-21T04:28:03.741Z,9.27
2023-03-21T04:31:24.162Z,9.28
2023-03-21T04:34:29.029Z,9.28
2023-03-21T04:37:33.914Z,9.19
2023-03-21T04:40:37.492Z,9.12
2023-03-21T04:43:40.907Z,9.07
2023-03-21T04:46:43.770Z,8.96
2023-03-21T04:49:48.153Z,8.95
2023-03-21T04:52:51.200Z,8.93
2023-03-21T04:55:57.566Z,8.85
2023-03-21T04:59:02.091Z,8.83
2023-03-21T05:02:04.964Z,8.74
2023-03-21T05:05:11.195Z,9.03
2023-03-21T05:08:14.517Z,8.68
2023-03-21T05:11:17.296Z,8.57
2023-03-21T05:14:23.651Z,8.53
2023-03-21T05:17:28.521Z,8.54
2023-03-21T05:20:31.976Z,8.48
2023-03-21T05:23:38.418Z,8.40
2023-03-21T05:26:43.221Z,8.34
2023-03-21T05:29:47.636Z,8.40
2023-03-21T05:32:51.524Z,8.53
2023-03-21T05:35:54.721Z,8.62
2023-03-21T05:38:58.091Z,8.71
2023-03-21T05:42:00.911Z,8.97
2023-03-21T05:45:04.350Z,9.17
2023-03-21T05:48:08.239Z,9.41
2023-03-21T05:51:12.464Z,9.41
2023-03-21T05:54:16.849Z,9.59
2023-03-21T05:57:20.212Z,9.84
2023-03-21T06:00:24.301Z,9.95
2023-03-21T06:03:33.887Z,9.97
2023-03-21T06:06:36.897Z,10.04
2023-03-21T06:09:40.183Z,10.16
2023-03-21T06:12:43.417Z,10.32
2023-03-21T06:15:47.475Z,10.38
2023-03-21T06:18:50.528Z,10.53
2023-03-21T06:21:53.922Z,10.68
2023-03-21T06:24:56.570Z,10.88
2023-03-21T06:27:59.448Z,11.01
2023-03-21T06:31:02.692Z,11.03
2023-03-21T06:34:05.750Z,11.05
2023-03-21T06:37:08.618Z,11.09
2023-03-21T06:40:13.952Z,11.18
2023-03-21T06:43:17.354Z,11.20
2023-03-21T06:46:20.778Z,11.35
2023-03-21T06:49:24.350Z,11.48
2023-03-21T06:52:27.250Z,11.51
2023-03-21T06:55:29.925Z,11.55
2023-03-21T06:58:34.169Z,11.68
2023-03-21T07:01:37.884Z,11.83
2023-03-21T07:04:41.238Z,11.92
2023-03-21T07:07:46.777Z,12.01
2023-03-21T07:10:50.534Z,12.23
2023-03-21T07:13:53.281Z,12.26
2023-03-21T07:16:56.879Z,12.47
2023-03-21T07:19:59.824Z,12.74
2023-03-21T07:23:02.654Z,12.81
2023-03-21T07:26:05.813Z,12.87
2023-03-21T07:29:11.983Z,13.07
2023-03-21T07:32:14.672Z,13.13
2023-03-21T07:35:18.129Z,13.26
2023-03-21T07:38:21.576Z,13.40
2023-03-21T07:41:24.768Z,13.55
2023-03-21T07:44:27.405Z,13.60
2023-03-21T07:47:32.077Z,13.62
2023-03-21T07:50:35.342Z,13.83
2023-03-21T07:53:38.332Z,13.93
2023-03-21T07:56:41.598Z,14.11
2023-03-21T07:59:44.815Z,14.22
2023-03-21T08:02:47.694Z,14.39
2023-03-21T08:05:51.112Z,14.44
2023-03-21T08:08:53.669Z,14.66
2023-03-21T08:11:56.522Z,14.84
2023-03-21T08:15:01.129Z,14.98
2023-03-21T08:18:04.175Z,15.18
2023-03-21T08:21:09.354Z,15.26
2023-03-21T08:24:12.448Z,15.40
2023-03-21T08:27:15.183Z,15.53
2023-03-21T08:30:21.309Z,15.75
2023-03-21T08:33:23.944Z,15.88
2023-03-21T08:36:26.770Z,16.01
2023-03-21T08:39:30.287Z,16.26
2023-03-21T08:42:33.484Z,16.30
2023-03-21T08:45:36.336Z,16.40
2023-03-21T08:48:39.726Z,16.59
2023-03-21T08:51:45.773Z,16.74
2023-03-21T08:54:49.140Z,16.77
2023-03-21T08:57:51.654Z,16.53
2023-03-21T09:00:54.685Z,16.71
2023-03-21T09:03:57.181Z,16.95
2023-03-21T09:07:01.560Z,17.12
2023-03-21T09:10:20.668Z,17.19
2023-03-21T09:13:24.758Z,17.04
2023-03-21T09:16:28.114Z,17.28
2023-03-21T09:19:31.951Z,17.15
2023-03-21T09:22:34.547Z,16.92
2023-03-21T09:25:38.672Z,16.79
2023-03-21T09:28:42.833Z,17.10
2023-03-21T09:31:47.087Z,17.44
2023-03-21T09:34:49.743Z,17.28
2023-03-21T09:37:52.850Z,17.66
2023-03-21T09:41:16.366Z,17.77
2023-03-21T09:44:32.218Z,17.99
2023-03-21T09:47:49.665Z,18.00
2023-03-21T09:50:53.504Z,18.18
2023-03-21T09:53:57.875Z,18.41
2023-03-21T09:57:20.757Z,18.17
2023-03-21T10:00:40.155Z,18.28
2023-03-21T10:03:43.928Z,18.29
2023-03-21T10:06:55.475Z,18.33
2023-03-21T10:10:00.436Z,18.21
2023-03-21T10:13:05.397Z,18.52
2023-03-21T10:16:17.388Z,18.62
2023-03-21T10:19:20.594Z,18.66
2023-03-21T10:22:23.460Z,18.60
2023-03-21T10:25:48.259Z,18.33
2023-03-21T10:28:53.625Z,18.62
2023-03-21T10:31:56.716Z,18.48
2023-03-21T10:35:00.048Z,18.59
2023-03-21T10:38:03.839Z,18.23
2023-03-21T10:41:06.796Z,18.47
2023-03-21T10:44:17.242Z,18.34
2023-03-21T10:47:32.596Z,18.52
2023-03-21T10:50:35.900Z,18.88
2023-03-21T10:53:41.634Z,19.13
2023-03-21T10:57:05.013Z,19.24
2023-03-21T11:00:17.174Z,19.07
2023-03-21T11:03:29.481Z,19.04
2023-03-21T11:06:35.019Z,18.72
2023-03-21T11:09:54.397Z,18.61
2023-03-21T11:12:58.532Z,18.65
2023-03-21T11:16:07.444Z,18.75
2023-03-21T11:19:16.214Z,18.74
2023-03-21T11:22:24.249Z,18.84
2023-03-21T11:25:37.627Z,18.87
2023-03-21T11:28:41.733Z,18.79
2023-03-21T11:31:44.976Z,18.75
2023-03-21T11:34:53.419Z,18.81
2023-03-21T11:37:56.723Z,19.14
2023-03-21T11:41:02.711Z,19.16
2023-03-21T11:44:05.795Z,19.23
2023-03-21T11:47:09.854Z,19.45
2023-03-21T11:50:17.774Z,19.71
2023-03-21T11:53:51.892Z,19.79
2023-03-21T11:57:13.477Z,19.79
2023-03-21T12:00:51.758Z,19.84
2023-03-21T12:04:04.697Z,19.67
2023-03-21T12:07:45.336Z,19.56
2023-03-21T12:11:07.233Z,19.09
2023-03-21T12:14:26.224Z,19.14
2023-03-21T12:17:56.902Z,18.58
2023-03-21T12:21:20.720Z,18.38
2023-03-21T12:24:28.501Z,18.20
2023-03-21T12:27:42.865Z,18.21
2023-03-21T12:30:48.264Z,18.12
2023-03-21T12:34:19.528Z,18.38
2023-03-21T12:37:32.716Z,18.64
2023-03-21T12:40:55.460Z,18.74
2023-03-21T12:44:06.275Z,18.93
2023-03-21T12:47:18.314Z,19.27
2023-03-21T12:50:37.483Z,19.49
2023-03-21T12:53:44.716Z,19.53
2023-03-21T12:56:55.572Z,19.55
2023-03-21T13:00:24.119Z,19.14
2023-03-21T13:03:40.578Z,19.02
2023-03-21T13:06:43.830Z,18.85
2023-03-21T13:09:46.901Z,18.47
2023-03-21T13:13:17.364Z,18.05
2023-03-21T13:16:41.707Z,18.08
2023-03-21T13:19:51.632Z,17.95
2023-03-21T13:22:54.840Z,17.84
2023-03-21T13:25:57.916Z,18.14
2023-03-21T13:29:01.006Z,18.44
2023-03-21T13:32:10.263Z,18.80
2023-03-21T13:35:13.629Z,18.81
2023-03-21T13:38:16.521Z,18.88
2023-03-21T13:41:25.963Z,18.92
2023-03-21T13:44:33.720Z,18.96
2023-03-21T13:48:01.942Z,18.99
2023-03-21T13:51:05.653Z,19.12
2023-03-21T13:54:08.908Z,18.77
2023-03-21T13:57:30.536Z,18.64
2023-03-21T14:00:39.810Z,18.68
2023-03-21T14:03:45.284Z,18.55
2023-03-21T14:07:07.170Z,18.70
2023-03-21T14:10:21.144Z,18.66
2023-03-21T14:13:26.172Z,18.84
2023-03-21T14:16:29.617Z,18.78
2023-03-21T14:19:32.823Z,18.61
2023-03-21T14:22:35.661Z,18.61
2023-03-21T14:25:46.752Z,18.72
2023-03-21T14:28:51.615Z,18.66
2023-03-21T14:31:56.376Z,18.80
2023-03-21T14:35:01.141Z,18.77
2023-03-21T14:38:05.675Z,18.72
2023-03-21T14:41:48.262Z,18.77
2023-03-21T14:44:56.140Z,18.60
2023-03-21T14:48:05.868Z,18.64
2023-03-21T14:51:12.198Z,18.67
2023-03-21T14:54:19.838Z,18.73
2023-03-21T14:57:25.704Z,18.73
2023-03-21T15:00:30.065Z,18.68
2023-03-21T15:03:33.141Z,18.79
2023-03-21T15:06:52.081Z,18.87
2023-03-21T15:10:00.912Z,18.52
2023-03-21T15:13:15.910Z,18.74
2023-03-21T15:16:19.063Z,18.54
2023-03-21T15:19:28.597Z,18.70
2023-03-21T15:22:43.043Z,18.60
2023-03-21T15:25:46.005Z,18.45
2023-03-21T15:28:51.534Z,18.30
2023-03-21T15:31:55.128Z,18.18
2023-03-21T15:35:07.474Z,18.06
2023-03-21T15:38:23.287Z,18.06
2023-03-21T15:41:29.542Z,18.02
2023-03-21T15:44:34.084Z,18.02
2023-03-21T15:47:49.901Z,17.66
2023-03-21T15:50:58.365Z,17.56
2023-03-21T15:54:02.434Z,17.45
2023-03-21T15:57:09.604Z,17.42
2023-03-21T16:00:22.604Z,17.44
2023-03-21T16:03:28.926Z,17.30
2023-03-21T16:06:33.755Z,17.33
2023-03-21T16:09:44.522Z,17.08
2023-03-21T16:12:47.032Z,17.08
2023-03-21T16:15:49.881Z,17.03
2023-03-21T16:18:54.964Z,16.97
2023-03-21T16:21:57.978Z,16.70
2023-03-21T16:25:00.728Z,16.81
2023-03-21T16:28:03.630Z,16.62
2023-03-21T16:31:06.515Z,16.59
2023-03-21T16:34:10.813Z,16.51
2023-03-21T16:37:16.067Z,16.44
2023-03-21T16:40:36.023Z,16.47
2023-03-21T16:43:43.077Z,16.41
2023-03-21T16:46:47.269Z,16.20
2023-03-21T16:49:50.039Z,16.07
2023-03-21T16:52:54.254Z,16.08
2023-03-21T16:56:02.544Z,15.96
2023-03-21T16:59:06.211Z,15.88
2023-03-21T17:02:13.024Z,15.76
2023-03-21T17:05:16.066Z,15.79
2023-03-21T17:08:19.900Z,15.67
2023-03-21T17:11:24.249Z,15.50
2023-03-21T17:14:27.196Z,15.47
2023-03-21T17:17:30.040Z,15.40
2023-03-21T17:20:35.187Z,15.23
2023-03-21T17:23:38.405Z,15.21
2023-03-21T17:26:41.062Z,15.16
2023-03-21T17:29:44.472Z,15.07
2023-03-21T17:32:48.711Z,14.90
2023-03-21T17:35:51.807Z,14.85
2023-03-21T17:38:55.456Z,14.79
2023-03-21T17:42:00.402Z,14.76
2023-03-21T17:45:03.089Z,14.64
2023-03-21T17:48:06.134Z,14.57
2023-03-21T17:51:12.816Z,14.45
2023-03-21T17:54:15.977Z,14.29
2023-03-21T17:57:18.540Z,14.23
2023-03-21T18:00:24.300Z,14.03
2023-03-21T18:03:27.241Z,13.90
2023-03-21T18:06:30.081Z,13.79
2023-03-21T18:09:33.583Z,13.65
2023-03-21T18:12:36.227Z,13.57
2023-03-21T18:15:44.257Z,13.48
2023-03-21T18:18:47.848Z,13.37
2023-03-21T18:21:52.051Z,13.24
2023-03-21T18:24:57.713Z,13.08
2023-03-21T18:28:10.592Z,13.02
2023-03-21T18:31:19.753Z,12.93
2023-03-21T18:34:23.249Z,12.92
2023-03-21T18:37:27.677Z,12.78
2023-03-21T18:40:30.947Z,12.68
2023-03-21T18:44:00.748Z,12.73
2023-03-21T18:46:58.781Z,12.76
2023-03-21T18:50:17.114Z,12.64
2023-03-21T18:53:22.448Z,12.48
2023-03-21T18:57:13.749Z,12.59
2023-03-21T18:59:48.605Z,12.59
2023-03-21T19:03:09.977Z,12.22
2023-03-21T19:06:17.769Z,12.03
2023-03-21T19:09:29.038Z,11.99
2023-03-21T19:12:35.669Z,11.98
2023-03-21T19:15:41.514Z,11.93
2023-03-21T19:18:57.254Z,11.98
2023-03-21T19:22:00.771Z,11.96
2023-03-21T19:25:05.741Z,11.84
2023-03-21T19:28:09.922Z,11.88
2023-03-21T19:31:15.634Z,11.71
2023-03-21T19:34:21.786Z,11.72
2023-03-21T19:37:25.462Z,11.53
2023-03-21T19:40:28.998Z,11.37
2023-03-21T19:43:33.593Z,11.24
2023-03-21T19:46:37.053Z,11.22
2023-03-21T19:53:04.365Z,10.98
2023-03-21T19:56:20.356Z,10.97
2023-03-21T19:59:25.202Z,10.82
2023-03-21T20:02:36.993Z,10.84
2023-03-21T20:05:40.818Z,10.76
2023-03-21T20:12:08.946Z,10.64
2023-03-21T20:15:18.294Z,10.59
2023-03-21T20:18:26.202Z,10.54
2023-03-21T20:21:33.850Z,10.51
2023-03-21T20:24:44.362Z,10.52
2023-03-21T20:27:47.245Z,10.45
2023-03-21T20:30:54.599Z,10.40
2023-03-21T20:33:58.056Z,10.45
2023-03-21T20:37:01.472Z,10.37
2023-03-21T20:40:09.366Z,10.40
2023-03-21T20:43:54.307Z,10.31
2023-03-21T20:46:37.523Z,10.55
2023-03-21T20:49:40.933Z,10.38
2023-03-21T20:53:01.140Z,10.27
2023-03-21T20:56:07.536Z,10.22
2023-03-21T20:59:23.118Z,10.24
2023-03-21T21:02:28.717Z,10.14
2023-03-21T21:05:34.883Z,10.14
2023-03-21T21:08:38.807Z,10.06
2023-03-21T21:12:06.594Z,10.11
2023-03-21T21:15:07.118Z,9.99
2023-03-21T21:18:10.027Z,9.96
2023-03-21T21:21:14.040Z,9.86
2023-03-21T21:24:16.536Z,9.80
2023-03-21T21:27:20.053Z,9.69
2023-03-21T21:30:23.205Z,9.69
2023-03-21T21:33:29.235Z,9.60
2023-03-21T21:36:31.772Z,9.53
2023-03-21T21:39:35.560Z,9.54
2023-03-21T21:42:38.483Z,9.56
2023-03-21T21:45:42.158Z,9.37
2023-03-21T21:48:44.701Z,9.14
2023-03-21T21:51:48.083Z,9.17
2023-03-21T21:54:50.637Z,9.16
2023-03-21T21:57:57.972Z,9.18
2023-03-21T22:01:01.710Z,9.20
2023-03-21T22:04:08.471Z,9.06
2023-03-21T22:07:14.262Z,9.04
2023-03-21T22:10:17.574Z,8.92
2023-03-21T22:13:20.419Z,9.06
2023-03-21T22:16:23.386Z,9.04
2023-03-21T22:19:27.673Z,9.11
2023-03-21T22:22:30.691Z,9.16
2023-03-21T22:25:33.214Z,9.11
2023-03-21T22:28:37.085Z,9.10
2023-03-21T22:31:41.843Z,9.14
2023-03-21T22:34:44.772Z,9.19
2023-03-21T22:37:47.326Z,9.12
2023-03-21T22:40:57.767Z,9.01
2023-03-21T22:44:00.433Z,8.92
2023-03-21T22:47:10.931Z,8.87
2023-03-21T22:50:13.539Z,8.82
2023-03-21T22:53:16.404Z,8.77
2023-03-21T22:56:19.062Z,8.75
2023-03-21T22:59:21.913Z,8.72
2023-03-21T23:02:24.891Z,8.70
2023-03-21T23:05:27.776Z,8.61
2023-03-21T23:08:30.584Z,8.57
2023-03-21T23:11:33.386Z,8.54
2023-03-21T23:14:36.040Z,8.60
2023-03-21T23:17:38.950Z,8.98
2023-03-21T23:20:42.183Z,8.80
2023-03-21T23:23:49.716Z,8.83
2023-03-21T23:26:52.801Z,8.74
2023-03-21T23:29:56.730Z,8.62
2023-03-21T23:32:59.252Z,8.52
2023-03-21T23:36:02.303Z,8.57
2023-03-21T23:39:04.850Z,8.55
2023-03-21T23:42:07.875Z,8.53
2023-03-21T23:45:10.982Z,8.50
2023-03-21T23:48:14.080Z,8.39
2023-03-21T23:51:17.709Z,8.64
2023-03-21T23:54:20.706Z,8.72
2023-03-21T23:57:23.251Z,8.71
